createdAt,value
2023-04-24T00:01:38.181Z,87.10
2023-04-24T00:04:07.452Z,89.20
2023-04-24T00:06:35.756Z,90.80
2023-04-24T00:09:04.351Z,92.00
2023-04-24T00:11:33.794Z,91.90
2023-04-24T00:14:02.347Z,94.20
2023-04-24T00:16:30.846Z,92.80
2023-04-24T00:18:59.229Z,92.70
2023-04-24T00:21:28.111Z,93.80
2023-04-24T00:23:56.392Z,94.30
2023-04-24T00:26:25.153Z,94.60
2023-04-24T00:28:54.634Z,95.40
2023-04-24T00:31:23.316Z,96.80
2023-04-24T00:33:51.554Z,96.90
2023-04-24T00:36:20.570Z,97.10
2023-04-24T00:38:48.992Z,97.60
2023-04-24T00:41:17.445Z,97.60
2023-04-24T00:43:45.750Z,98.60
2023-04-24T00:46:16.179Z,99.90
2023-04-24T00:48:45.588Z,99.90
2023-04-24T00:51:14.046Z,99.90
2023-04-24T00:53:42.173Z,99.90
2023-04-24T00:56:10.596Z,99.90
2023-04-24T00:58:39.404Z,99.90
2023-04-24T01:01:08.663Z,99.90
2023-04-24T01:03:39.163Z,99.90
2023-04-24T01:06:07.878Z,99.90
2023-04-24T01:08:38.082Z,99.90
2023-04-24T01:11:06.922Z,99.90
2023-04-24T01:13:36.319Z,99.90
2023-04-24T01:16:05.057Z,99.90
2023-04-24T01:18:33.314Z,99.90
2023-04-24T01:21:06.063Z,99.90
2023-04-24T01:23:35.854Z,99.90
2023-04-24T01:26:04.187Z,99.90
2023-04-24T01:28:32.929Z,99.90
2023-04-24T01:31:01.667Z,99.90
2023-04-24T01:33:30.024Z,99.90
2023-04-24T01:35:58.599Z,99.90
2023-04-24T01:38:26.815Z,99.90
2023-04-24T01:40:56.436Z,99.90
2023-04-24T01:43:27.083Z,99.90
2023-04-24T01:45:55.236Z,99.90
2023-04-24T01:48:23.718Z,99.90
2023-04-24T01:50:51.803Z,99.90
2023-04-24T01:53:20.162Z,99.90
2023-04-24T01:55:48.916Z,99.90
2023-04-24T01:58:18.650Z,99.90
2023-04-24T02:00:47.049Z,99.90
2023-04-24T02:03:16.430Z,99.90
2023-04-24T02:05:46.571Z,99.90
2023-04-24T02:08:14.680Z,99.90
2023-04-24T02:10:43.032Z,99.90
2023-04-24T02:13:11.506Z,99.90
2023-04-24T02:15:41.094Z,99.90
2023-04-24T02:18:09.525Z,99.90
2023-04-24T02:20:37.965Z,99.90
2023-04-24T02:23:06.139Z,99.90
2023-04-24T02:25:35.371Z,99.90
2023-04-24T02:28:03.978Z,99.90
2023-04-24T02:30:32.389Z,99.90
2023-04-24T02:33:01.801Z,99.90
2023-04-24T02:35:30.293Z,99.90
2023-04-24T02:37:58.748Z,99.90
2023-04-24T02:40:26.789Z,99.90
2023-04-24T02:42:54.945Z,99.90
2023-04-24T02:45:23.112Z,99.90
2023-04-24T02:47:51.251Z,99.90
2023-04-24T02:50:20.775Z,99.90
2023-04-24T02:52:48.932Z,99.90
2023-04-24T02:55:17.137Z,99.90
2023-04-24T02:57:45.336Z,99.90
2023-04-24T03:00:14.603Z,99.90
2023-04-24T03:02:43.147Z,99.90
2023-04-24T03:05:12.953Z,99.90
2023-04-24T03:07:42.801Z,99.90
2023-04-24T03:10:11.734Z,99.90
2023-04-24T03:12:40.067Z,99.90
2023-04-24T03:15:09.604Z,99.90
2023-04-24T03:17:39.306Z,99.90
2023-04-24T03:20:10.026Z,99.90
2023-04-24T03:22:38.617Z,99.90
2023-04-24T03:25:11.425Z,99.90
2023-04-24T03:27:40.308Z,99.90
2023-04-24T03:30:28.690Z,99.90
2023-04-24T03:33:00.835Z,99.90
2023-04-24T03:35:32.270Z,99.90
2023-04-24T03:38:05.265Z,99.90
2023-04-24T03:40:53.786Z,99.90
2023-04-24T03:43:51.216Z,99.90
2023-04-24T03:46:19.758Z,99.90
2023-04-24T03:48:54.952Z,99.90
2023-04-24T03:51:29.218Z,99.90
2023-04-24T03:54:02.464Z,99.90
2023-04-24T03:56:33.850Z,99.90
2023-04-24T03:59:03.676Z,99.90
2023-04-24T04:01:32.896Z,99.90
2023-04-24T04:04:06.088Z,99.90
2023-04-24T04:06:35.045Z,99.90
2023-04-24T04:09:04.154Z,99.90
2023-04-24T04:11:33.860Z,99.90
2023-04-24T04:14:02.149Z,99.90
2023-04-24T04:16:30.994Z,99.90
2023-04-24T04:19:05.024Z,99.90
2023-04-24T04:21:33.330Z,99.90
2023-04-24T04:24:27.583Z,99.90
2023-04-24T04:26:59.146Z,99.90
2023-04-24T04:29:32.416Z,99.90
2023-04-24T04:32:01.263Z,99.90
2023-04-24T04:34:30.813Z,99.90
2023-04-24T04:37:02.240Z,99.90
2023-04-24T04:39:47.374Z,99.90
2023-04-24T04:42:24.772Z,99.90
2023-04-24T04:44:53.290Z,99.90
2023-04-24T04:47:29.654Z,99.90
2023-04-24T04:49:58.995Z,99.90
2023-04-24T04:52:29.410Z,99.30
2023-04-24T04:55:07.516Z,98.70
2023-04-24T04:58:06.194Z,95.90
2023-04-24T05:00:36.858Z,92.40
2023-04-24T05:03:20.902Z,93.10
2023-04-24T05:05:54.645Z,92.00
2023-04-24T05:08:27.431Z,84.30
2023-04-24T05:10:57.153Z,81.90
2023-04-24T05:13:39.074Z,76.30
2023-04-24T05:16:12.521Z,74.50
2023-04-24T05:18:41.293Z,74.90
2023-04-24T05:21:12.013Z,67.80
2023-04-24T05:23:42.686Z,64.50
2023-04-24T05:26:13.490Z,58.70
2023-04-24T05:28:44.403Z,52.80
2023-04-24T05:31:14.584Z,55.30
2023-04-24T05:33:43.154Z,51.30
2023-04-24T05:36:12.896Z,49.50
2023-04-24T05:38:42.066Z,48.00
2023-04-24T05:41:10.466Z,51.50
2023-04-24T05:43:40.660Z,50.80
2023-04-24T05:46:10.366Z,48.10
2023-04-24T05:48:38.492Z,49.10
2023-04-24T05:51:06.751Z,47.40
2023-04-24T05:53:35.583Z,43.90
2023-04-24T05:56:03.981Z,44.60
2023-04-24T05:58:33.008Z,44.30
2023-04-24T06:01:02.676Z,39.60
2023-04-24T06:03:32.719Z,41.30
2023-04-24T06:06:01.237Z,40.80
2023-04-24T06:08:29.350Z,38.50
2023-04-24T06:10:58.232Z,37.80
2023-04-24T06:13:27.528Z,38.00
2023-04-24T06:16:16.768Z,38.80
2023-04-24T06:18:51.586Z,37.90
2023-04-24T06:21:21.098Z,36.90
2023-04-24T06:23:52.532Z,36.50
2023-04-24T06:26:21.106Z,35.50
2023-04-24T06:28:49.374Z,34.40
2023-04-24T06:31:17.732Z,33.30
2023-04-24T06:33:45.899Z,30.80
2023-04-24T06:36:15.617Z,30.10
2023-04-24T06:38:43.764Z,29.30
2023-04-24T06:41:14.053Z,29.10
2023-04-24T06:43:42.608Z,28.00
2023-04-24T06:46:10.906Z,26.60
2023-04-24T06:48:39.288Z,26.60
2023-04-24T06:51:07.548Z,27.40
2023-04-24T06:53:37.403Z,27.00
2023-04-24T06:56:06.283Z,26.50
2023-04-24T06:58:35.023Z,26.60
2023-04-24T07:01:03.192Z,27.80
2023-04-24T07:03:31.747Z,29.00
2023-04-24T07:06:00.243Z,28.70
2023-04-24T07:08:29.494Z,28.00
2023-04-24T07:10:59.622Z,29.20
2023-04-24T07:13:28.337Z,28.60
2023-04-24T07:15:57.377Z,27.00
2023-04-24T07:18:25.656Z,27.00
2023-04-24T07:20:53.649Z,27.70
2023-04-24T07:23:22.349Z,28.00
2023-04-24T07:25:58.570Z,27.30
2023-04-24T07:28:32.124Z,26.80
2023-04-24T07:31:00.925Z,26.20
2023-04-24T07:33:29.393Z,26.70
2023-04-24T07:35:57.600Z,24.70
2023-04-24T07:38:26.905Z,26.00
2023-04-24T07:40:55.425Z,25.00
2023-04-24T07:43:24.685Z,27.10
2023-04-24T07:45:54.475Z,26.30
2023-04-24T07:48:23.272Z,25.20
2023-04-24T07:50:51.481Z,27.70
2023-04-24T07:53:19.677Z,25.80
2023-04-24T07:55:48.812Z,25.60
2023-04-24T07:58:17.374Z,26.10
2023-04-24T08:00:45.922Z,26.50
2023-04-24T08:03:19.485Z,23.70
2023-04-24T08:05:48.169Z,24.70
2023-04-24T08:08:16.726Z,25.00
2023-04-24T08:10:44.986Z,22.70
2023-04-24T08:13:13.511Z,22.80
2023-04-24T08:15:41.754Z,21.60
2023-04-24T08:18:12.991Z,23.40
2023-04-24T08:20:42.656Z,22.70
2023-04-24T08:23:11.067Z,21.30
2023-04-24T08:25:39.322Z,19.70
2023-04-24T08:28:08.925Z,20.10
2023-04-24T08:30:37.295Z,20.80
2023-04-24T08:33:05.687Z,21.30
2023-04-24T08:35:34.266Z,20.50
2023-04-24T08:38:04.167Z,20.60
2023-04-24T08:40:36.399Z,22.00
2023-04-24T08:43:06.368Z,21.50
2023-04-24T08:45:35.561Z,21.90
2023-04-24T08:48:05.868Z,21.10
2023-04-24T08:50:36.691Z,20.40
2023-04-24T08:53:09.730Z,21.10
2023-04-24T08:55:39.292Z,22.00
2023-04-24T08:58:07.885Z,21.70
2023-04-24T09:00:36.512Z,23.20
2023-04-24T09:03:07.246Z,22.40
2023-04-24T09:05:36.271Z,24.70
2023-04-24T09:08:06.557Z,24.30
2023-04-24T09:10:37.805Z,23.70
2023-04-24T09:13:06.077Z,25.80
2023-04-24T09:15:36.891Z,25.20
2023-04-24T09:18:05.471Z,24.80
2023-04-24T09:20:34.336Z,23.80
2023-04-24T09:23:02.616Z,24.20
2023-04-24T09:25:37.032Z,22.80
2023-04-24T09:28:06.936Z,23.70
2023-04-24T09:30:35.182Z,24.60
2023-04-24T09:33:12.722Z,23.90
2023-04-24T09:35:44.338Z,23.20
2023-04-24T09:38:12.905Z,24.50
2023-04-24T09:40:42.503Z,23.60
2023-04-24T09:43:13.549Z,23.80
2023-04-24T09:45:43.274Z,22.90
2023-04-24T09:48:12.355Z,21.60
2023-04-24T09:50:41.275Z,21.70
2023-04-24T09:53:10.028Z,23.60
2023-04-24T09:55:49.556Z,21.90
2023-04-24T09:58:17.856Z,19.90
2023-04-24T10:00:48.358Z,17.80
2023-04-24T10:03:17.147Z,16.00
2023-04-24T10:05:48.199Z,17.80
2023-04-24T10:08:16.474Z,16.60
2023-04-24T10:10:48.079Z,17.00
2023-04-24T10:13:17.314Z,15.50
2023-04-24T10:15:46.001Z,15.50
2023-04-24T10:18:14.435Z,14.70
2023-04-24T10:20:43.092Z,16.20
2023-04-24T10:23:11.910Z,14.70
2023-04-24T10:25:40.159Z,13.80
2023-04-24T10:28:11.250Z,14.30
2023-04-24T10:30:40.187Z,14.30
2023-04-24T10:33:10.617Z,14.00
2023-04-24T10:35:42.688Z,11.80
2023-04-24T10:38:15.140Z,12.80
2023-04-24T10:40:44.875Z,11.70
2023-04-24T10:43:19.571Z,10.60
2023-04-24T10:46:03.874Z,11.90
2023-04-24T10:48:33.409Z,11.80
2023-04-24T10:51:01.763Z,11.80
2023-04-24T10:53:31.850Z,10.80
2023-04-24T10:56:01.563Z,9.30
2023-04-24T10:58:41.392Z,9.40
2023-04-24T11:01:09.774Z,9.00
2023-04-24T11:03:38.953Z,8.70
2023-04-24T11:06:08.896Z,8.20
2023-04-24T11:08:41.920Z,9.40
2023-04-24T11:11:14.718Z,9.50
2023-04-24T11:14:09.123Z,10.20
2023-04-24T11:16:41.718Z,9.80
2023-04-24T11:19:12.256Z,10.10
2023-04-24T11:21:45.602Z,10.80
2023-04-24T11:24:34.948Z,10.90
2023-04-24T11:27:10.044Z,10.20
2023-04-24T11:29:45.094Z,10.00
2023-04-24T11:32:20.403Z,9.80
2023-04-24T11:34:49.880Z,10.30
2023-04-24T11:37:18.276Z,10.70
2023-04-24T11:39:46.433Z,11.10
2023-04-24T11:42:17.245Z,10.80
2023-04-24T11:44:48.737Z,10.70
2023-04-24T11:47:17.019Z,9.60
2023-04-24T11:49:45.166Z,9.10
2023-04-24T11:52:17.396Z,9.00
2023-04-24T11:54:50.659Z,7.80
2023-04-24T11:57:22.800Z,8.20
2023-04-24T11:59:52.723Z,9.50
2023-04-24T12:02:28.384Z,10.00
2023-04-24T12:04:57.917Z,11.20
2023-04-24T12:07:26.603Z,12.00
2023-04-24T12:10:00.549Z,12.30
2023-04-24T12:12:30.331Z,12.00
2023-04-24T12:15:01.225Z,10.60
2023-04-24T12:17:32.091Z,11.80
2023-04-24T12:20:03.282Z,11.90
2023-04-24T12:22:46.628Z,12.50
2023-04-24T12:25:15.684Z,12.10
2023-04-24T12:27:43.934Z,13.00
2023-04-24T12:30:16.300Z,12.70
2023-04-24T12:32:47.995Z,13.40
2023-04-24T12:35:22.111Z,12.90
2023-04-24T12:37:52.637Z,14.10
2023-04-24T12:40:22.653Z,13.00
2023-04-24T12:42:52.478Z,12.80
2023-04-24T12:45:24.384Z,11.80
2023-04-24T12:47:52.834Z,11.60
2023-04-24T12:50:21.740Z,11.10
2023-04-24T12:52:50.148Z,10.40
2023-04-24T12:55:18.465Z,10.50
2023-04-24T12:57:46.751Z,10.60
2023-04-24T13:00:16.459Z,10.70
2023-04-24T13:02:47.757Z,11.30
2023-04-24T13:05:16.583Z,13.60
2023-04-24T13:07:44.972Z,16.10
2023-04-24T13:10:14.324Z,17.70
2023-04-24T13:12:46.350Z,18.60
2023-04-24T13:15:15.028Z,19.60
2023-04-24T13:17:43.280Z,20.40
2023-04-24T13:20:13.092Z,21.00
2023-04-24T13:22:41.309Z,21.30
2023-04-24T13:25:10.308Z,21.90
2023-04-24T13:27:40.117Z,21.90
2023-04-24T13:30:09.561Z,22.80
2023-04-24T13:32:37.788Z,22.50
2023-04-24T13:35:06.666Z,21.90
2023-04-24T13:37:36.368Z,22.00
2023-04-24T13:40:07.270Z,22.00
2023-04-24T13:42:36.058Z,22.00
2023-04-24T13:45:23.409Z,21.90
2023-04-24T13:47:53.511Z,21.50
2023-04-24T13:50:22.001Z,21.50
2023-04-24T13:52:51.542Z,21.10
2023-04-24T13:55:20.101Z,20.90
2023-04-24T13:57:49.281Z,20.50
2023-04-24T14:00:19.632Z,20.70
2023-04-24T14:02:49.819Z,19.80
2023-04-24T14:05:19.363Z,19.70
2023-04-24T14:07:47.509Z,18.90
2023-04-24T14:10:17.159Z,17.50
2023-04-24T14:12:45.469Z,17.10
2023-04-24T14:15:14.598Z,16.20
2023-04-24T14:17:42.926Z,15.80
2023-04-24T14:20:11.845Z,16.20
2023-04-24T14:22:39.998Z,16.50
2023-04-24T14:25:09.340Z,15.90
2023-04-24T14:27:39.023Z,16.00
2023-04-24T14:30:09.641Z,15.50
2023-04-24T14:32:38.037Z,14.60
2023-04-24T14:35:07.290Z,12.70
2023-04-24T14:37:35.694Z,12.60
2023-04-24T14:40:20.594Z,11.70
2023-04-24T14:42:55.212Z,11.50
2023-04-24T14:45:23.785Z,11.60
2023-04-24T14:47:52.119Z,12.30
2023-04-24T14:50:22.259Z,12.20
2023-04-24T14:52:51.986Z,13.20
2023-04-24T14:55:20.104Z,13.90
2023-04-24T14:57:48.769Z,14.70
2023-04-24T15:00:21.220Z,15.10
2023-04-24T15:02:49.545Z,15.90
2023-04-24T15:05:18.275Z,16.20
2023-04-24T15:07:46.897Z,15.60
2023-04-24T15:10:14.934Z,16.20
2023-04-24T15:12:43.289Z,16.70
2023-04-24T15:15:11.993Z,15.60
2023-04-24T15:17:41.870Z,15.30
2023-04-24T15:20:11.101Z,14.20
2023-04-24T15:22:39.340Z,13.30
2023-04-24T15:25:08.612Z,13.60
2023-04-24T15:27:44.164Z,13.20
2023-04-24T15:30:13.315Z,12.80
2023-04-24T15:32:43.137Z,12.90
2023-04-24T15:35:12.440Z,12.80
2023-04-24T15:37:40.943Z,12.80
2023-04-24T15:40:12.165Z,12.40
2023-04-24T15:42:40.984Z,14.20
2023-04-24T15:45:10.345Z,13.30
2023-04-24T15:47:38.630Z,14.90
2023-04-24T15:50:12.770Z,12.60
2023-04-24T15:52:42.364Z,12.80
2023-04-24T15:55:17.634Z,13.50
2023-04-24T15:57:46.393Z,13.50
2023-04-24T16:00:15.583Z,13.40
2023-04-24T16:03:53.743Z,14.00
2023-04-24T16:10:03.225Z,14.70
2023-04-24T16:12:31.446Z,14.30
2023-04-24T16:14:59.714Z,14.10
2023-04-24T16:17:28.148Z,14.10
2023-04-24T16:19:56.387Z,13.30
2023-04-24T16:22:24.490Z,13.20
2023-04-24T16:24:52.585Z,13.10
2023-04-24T16:27:22.161Z,12.80
2023-04-24T16:29:58.116Z,13.30
2023-04-24T16:32:26.565Z,14.50
2023-04-24T16:34:57.631Z,13.30
2023-04-24T16:37:26.292Z,13.30
2023-04-24T16:39:55.195Z,13.00
2023-04-24T16:42:25.080Z,13.40
2023-04-24T16:45:02.988Z,14.00
2023-04-24T16:47:45.375Z,14.30
2023-04-24T16:50:35.929Z,14.90
2023-04-24T16:53:05.439Z,15.20
2023-04-24T16:55:33.824Z,16.80
2023-04-24T16:58:03.669Z,16.70
2023-04-24T17:00:31.754Z,17.50
2023-04-24T17:03:00.481Z,18.10
2023-04-24T17:05:28.894Z,19.10
2023-04-24T17:07:59.996Z,19.30
2023-04-24T17:10:29.017Z,19.50
2023-04-24T17:12:57.425Z,20.30
2023-04-24T17:15:27.109Z,21.50
2023-04-24T17:17:55.371Z,21.70
2023-04-24T17:20:24.330Z,22.00
2023-04-24T17:22:52.749Z,21.90
2023-04-24T17:25:21.472Z,22.20
2023-04-24T17:27:49.735Z,22.80
2023-04-24T17:30:18.294Z,22.90
2023-04-24T17:32:48.157Z,22.90
2023-04-24T17:35:16.739Z,23.40
2023-04-24T17:37:45.114Z,23.70
2023-04-24T17:40:14.392Z,23.80
2023-04-24T17:42:42.838Z,24.00
2023-04-24T17:45:12.251Z,24.00
2023-04-24T17:47:41.222Z,24.60
2023-04-24T17:50:36.561Z,24.90
2023-04-24T17:53:08.163Z,25.10
2023-04-24T17:55:36.800Z,25.70
2023-04-24T17:58:05.400Z,26.10
2023-04-24T18:00:35.244Z,26.60
2023-04-24T18:03:04.479Z,27.20
2023-04-24T18:05:35.897Z,27.60
2023-04-24T18:08:04.686Z,28.00
2023-04-24T18:10:35.405Z,28.40
2023-04-24T18:13:03.797Z,28.70
2023-04-24T18:15:32.432Z,29.70
2023-04-24T18:18:00.808Z,31.30
2023-04-24T18:20:31.313Z,33.80
2023-04-24T18:23:03.364Z,37.40
2023-04-24T18:25:31.869Z,39.70
2023-04-24T18:28:00.298Z,42.00
2023-04-24T18:30:31.156Z,44.20
2023-04-24T18:33:01.295Z,48.10
2023-04-24T18:35:29.646Z,50.70
2023-04-24T18:37:57.761Z,53.40
2023-04-24T18:40:27.833Z,56.60
2023-04-24T18:42:57.427Z,59.30
2023-04-24T18:45:26.423Z,61.30
2023-04-24T18:47:54.771Z,64.10
2023-04-24T18:50:23.278Z,70.10
2023-04-24T18:52:51.470Z,72.10
2023-04-24T18:55:19.804Z,71.40
2023-04-24T18:57:49.365Z,72.40
2023-04-24T19:00:18.106Z,73.60
2023-04-24T19:02:50.081Z,75.60
2023-04-24T19:06:06.078Z,79.90
2023-04-24T19:09:07.837Z,80.90
2023-04-24T19:12:23.142Z,84.00
2023-04-24T19:18:10.439Z,90.80
2023-04-24T19:20:38.520Z,92.60
2023-04-24T19:23:06.644Z,95.60
2023-04-24T19:25:34.734Z,94.00
2023-04-24T19:28:03.475Z,92.60
2023-04-24T19:30:47.107Z,93.20
2023-04-24T19:33:19.288Z,92.90
2023-04-24T19:35:47.350Z,92.40
2023-04-24T19:38:15.423Z,90.60
2023-04-24T19:40:43.666Z,85.70
2023-04-24T19:43:11.775Z,77.20
2023-04-24T19:45:41.204Z,62.90
2023-04-24T19:48:09.297Z,43.50
2023-04-24T19:50:37.910Z,36.00
2023-04-24T19:53:06.493Z,30.80
2023-04-24T19:55:39.081Z,29.90
2023-04-24T19:58:13.136Z,28.90
2023-04-24T20:00:44.127Z,28.00
2023-04-24T20:03:21.695Z,27.90
2023-04-24T20:05:59.770Z,28.20
2023-04-24T20:08:27.892Z,29.10
2023-04-24T20:10:57.874Z,30.50
2023-04-24T20:13:42.942Z,31.40
2023-04-24T20:16:27.647Z,35.00
2023-04-24T20:18:56.496Z,39.60
2023-04-24T20:21:24.728Z,47.70
2023-04-24T20:23:52.993Z,50.10
2023-04-24T20:26:38.947Z,55.90
2023-04-24T20:32:12.736Z,66.10
2023-04-24T20:34:40.764Z,69.10
2023-04-24T20:37:08.781Z,71.20
2023-04-24T20:39:36.990Z,75.00
2023-04-24T20:42:05.191Z,78.00
2023-04-24T20:44:38.283Z,79.60
2023-04-24T20:47:12.136Z,82.90
2023-04-24T20:49:51.146Z,84.30
2023-04-24T20:52:19.152Z,86.50
2023-04-24T20:54:48.235Z,90.00
2023-04-24T20:57:16.420Z,91.20
2023-04-24T20:59:44.456Z,91.80
2023-04-24T21:02:12.678Z,92.20
2023-04-24T21:04:51.131Z,92.80
2023-04-24T21:07:22.431Z,94.40
2023-04-24T21:09:50.862Z,95.40
2023-04-24T21:19:02.045Z,98.10
2023-04-24T21:21:32.104Z,99.90
2023-04-24T21:24:19.489Z,99.90
2023-04-24T21:26:47.783Z,99.90
2023-04-24T21:29:35.881Z,99.90
2023-04-24T21:32:04.342Z,99.90
2023-04-24T21:34:32.415Z,99.90
2023-04-24T21:37:01.914Z,99.90
2023-04-24T21:39:29.978Z,99.90
2023-04-24T21:41:58.437Z,99.90
2023-04-24T21:44:27.114Z,99.90
2023-04-24T21:46:55.813Z,99.90
2023-04-24T21:49:23.855Z,99.90
2023-04-24T21:51:51.987Z,99.90
2023-04-24T21:54:51.173Z,99.90
2023-04-24T21:57:19.190Z,99.90
2023-04-24T21:59:47.399Z,99.90
2023-04-24T22:02:15.727Z,99.90
2023-04-24T22:04:43.869Z,99.90
2023-04-24T22:07:12.193Z,99.90
2023-04-24T22:09:41.825Z,99.90
2023-04-24T22:12:09.887Z,99.90
2023-04-24T22:14:38.132Z,99.90
2023-04-24T22:17:06.086Z,99.90
2023-04-24T22:19:34.203Z,99.90
2023-04-24T22:22:02.298Z,99.90
2023-04-24T22:24:30.826Z,99.90
2023-04-24T22:27:00.474Z,99.90
2023-04-24T22:29:28.429Z,99.90
2023-04-24T22:31:57.792Z,99.90
2023-04-24T22:34:25.779Z,99.90
2023-04-24T22:36:53.775Z,99.90
2023-04-24T22:39:21.746Z,99.90
2023-04-24T22:41:50.034Z,99.90
2023-04-24T22:44:19.381Z,99.90
2023-04-24T22:46:47.640Z,99.90
2023-04-24T22:49:16.329Z,99.90
2023-04-24T22:51:45.349Z,99.90
2023-04-24T22:54:13.344Z,99.90
2023-04-24T22:56:41.569Z,99.90
2023-04-24T22:59:09.639Z,99.90
2023-04-24T23:01:38.941Z,99.90
2023-04-24T23:04:07.206Z,99.90
2023-04-24T23:06:35.221Z,99.90
2023-04-24T23:09:03.164Z,99.90
2023-04-24T23:11:31.090Z,99.90
2023-04-24T23:13:59.036Z,99.90
2023-04-24T23:16:27.002Z,99.90
2023-04-24T23:18:56.387Z,99.90
2023-04-24T23:21:24.303Z,99.90
2023-04-24T23:23:52.820Z,99.90
2023-04-24T23:26:20.944Z,99.90
2023-04-24T23:28:48.957Z,99.90
2023-04-24T23:31:16.953Z,99.90
2023-04-24T23:33:44.972Z,99.90
2023-04-24T23:36:15.508Z,99.90
2023-04-24T23:38:50.010Z,99.90
2023-04-24T23:41:18.881Z,99.90
2023-04-24T23:43:47.073Z,99.90
2023-04-24T23:46:15.450Z,99.90
2023-04-24T23:48:43.460Z,99.90
2023-04-24T23:51:12.091Z,99.90
2023-04-24T23:53:41.544Z,99.90
2023-04-24T23:56:09.486Z,99.90
2023-04-24T23:58:37.646Z,99.90
